Hovedside
METAR-TAF:

METAR-TAF

Lufthavner :

Bridgetown, Barbados

breddegrad: 13-04N, lengdegrad: 059-29W, høyde over havet: 50 m

Gjeldene værobservasjon

Denne rapporten ble laget for 47 minutter siden, klokken 21:00 UTC
Vind 8 kt fra Øst
Temperatur 29°C
Luftfuktighet 84%
Trykk 1012 hPa
Sikt 10 km eller mer
Få skyer i en høyde av 1400 ft, Tårnskyer (cumulus).

METAR: TBPB 232100Z 09008KT 9999 FEW014TCU 29/26 Q1012 NOSIG

Tid: 17:47 (21:47 UTC)

Varsel

Denne rapporten ble laget for 4 timer og 47 minutter siden, klokken 17:00 UTC
Varsel gyldig fra 23. klokken 18 UTC til 24. klokken 18 UTC
Vind 13 kt fra Øst-sørøst
Sikt 10 km eller mer
Spredte skyer i en høyde av 1600 ft
Sannsynlighet 40% :
Midlertidig
fra 23. klokken 22 UTC til 24. klokken 04 UTC
Vind 15 kt fra Øst-sørøst med vindkast opp mot 25 kt
Brutte skyer i en høyde av 1400 ft
Få skyer i en høyde av 1500 ft, Bygeskyer.
regnbyger,

TAF: TBPB 231700Z 2318/2418 12013KT 9999 SCT016 PROB40 TEMPO 2322/2404 12015G25KT SHRA BKN014 FEW015CB

Værobservasjoner og værvarsel for over 4000 flyplasser (METAR- og TAF-rapporter).

Tilgjengelige stasjoner er representert av de røde og gule prikkene på kartet.

Hold musepekeren over prikken for å se navnet på stasjonen.

Klikk så for å se værobservasjoner og -varsler.

For å forandre kartet kan du klikke på den grønne knappen med svart kryss for å zoome inn, på den grønne knappen med strek for å zoome ut, eller på de grønne pilene for å se tilstøtende kart.


METAR-TAF: